Time;durP1;ratioP1;P1;durP2;ratioP2;P2;SDS_P1;SDS_P2;PMS_P1;PMS_P2;Temp;Humidity;BMP_temperature;BMP_pressure;BME280_temperature;BME280_humidity;BME280_pressure;Samples;Min_cycle;Max_cycle;Signal;HPM_P1;HPM_P2
2023/07/29 00:00:36;;;;;;;;;;;;;;;22.31;66.99;99720.84;4995187;28;6799;-75
2023/07/29 00:03:02;;;;;;;;;;;;;;;22.34;66.86;99715.59;4995653;28;7136;-76
2023/07/29 00:05:27;;;;;;;;;;;;;;;22.39;66.70;99715.53;4997214;28;6872;-75
2023/07/29 00:07:53;;;;;;;;;;;;;;;22.45;66.84;99715.47;4994170;28;6812;-76
2023/07/29 00:10:19;;;;;;;;;;;;;;;22.50;66.83;99710.19;5000657;28;7101;-73
2023/07/29 00:12:45;;;;;;;;;;;;;;;22.54;66.47;99703.19;5003562;28;6796;-75
2023/07/29 00:15:11;;;;;;;;;;;;;;;22.60;66.79;99710.97;5000539;28;6963;-75
2023/07/29 00:17:36;;;;;;;;;;;;;;;22.62;66.40;99706.56;4997430;28;7195;-75
2023/07/29 00:20:03;;;;;;;;;;;;;;;22.64;66.35;99706.56;5016076;28;6784;-74
2023/07/29 00:22:28;;;;;;;;;;;;;;;22.68;66.41;99709.13;4995270;28;6820;-76
2023/07/29 00:24:55;;;;;;;;;;;;;;;22.72;66.65;99712.56;4997477;28;6879;-77
2023/07/29 00:27:21;;;;;;;;;;;;;;;22.75;66.06;99716.00;4986926;28;6995;-77
2023/07/29 00:29:47;;;;;;;;;;;;;;;22.80;66.25;99707.22;5015570;28;7017;-76
2023/07/29 00:32:12;;;;;;;;;;;;;;;22.84;66.25;99712.38;4997565;28;6775;-75
2023/07/29 00:34:37;;;;;;;;;;;;;;;22.86;66.13;99707.16;4982070;28;7267;-76
2023/07/29 00:37:03;;;;;;;;;;;;;;;22.88;65.87;99703.59;5000326;28;6811;-75
2023/07/29 00:39:29;;;;;;;;;;;;;;;22.91;66.38;99707.09;4997712;28;6954;-74
2023/07/29 00:41:54;;;;;;;;;;;;;;;22.93;66.61;99708.78;5014067;28;7027;-71
2023/07/29 00:44:20;;;;;;;;;;;;;;;22.96;66.25;99702.63;4993540;28;6859;-72
2023/07/29 00:46:47;;;;;;;;;;;;;;;22.99;65.88;99705.22;5000313;28;6796;-72
2023/07/29 00:49:12;;;;;;;;;;;;;;;23.02;66.30;99711.25;5011749;28;6804;-71
2023/07/29 00:51:38;;;;;;;;;;;;;;;23.04;66.06;99703.41;4997802;28;7364;-71
2023/07/29 00:54:03;;;;;;;;;;;;;;;23.07;66.29;99700.72;5010959;28;7016;-72
2023/07/29 00:56:29;;;;;;;;;;;;;;;23.09;66.46;99690.25;4997336;28;6958;-71
2023/07/29 00:58:58;;;;;;;;;;;;;;;23.10;65.44;99690.25;5011563;28;6796;-71
2023/07/29 01:01:24;;;;;;;;;;;;;;;23.12;65.93;99688.47;4991085;28;7205;-72
2023/07/29 01:03:50;;;;;;;;;;;;;;;23.15;65.75;99687.56;4996982;28;6801;-72
2023/07/29 01:06:40;;;;;;;;;;;;;;;23.11;65.59;99707.66;4977261;28;6986;-71
2023/07/29 01:09:43;;;;;;;;;;;;;;;23.07;65.49;99715.56;5010032;28;6972;-72
2023/07/29 01:12:41;;;;;;;;;;;;;;;23.00;66.38;99709.56;4988182;28;7002;-71
2023/07/29 01:15:33;;;;;;;;;;;;;;;22.98;65.98;99693.03;4990293;28;7027;-71
2023/07/29 01:18:05;;;;;;;;;;;;;;;22.95;66.63;99696.56;4997373;28;6815;-72
2023/07/29 01:20:33;;;;;;;;;;;;;;;22.93;66.56;99693.09;4999622;28;6967;-71
2023/07/29 01:22:59;;;;;;;;;;;;;;;22.91;66.32;99691.41;5015703;28;7049;-71
2023/07/29 01:25:25;;;;;;;;;;;;;;;22.88;66.63;99685.31;4998501;28;7685;-71
2023/07/29 01:27:52;;;;;;;;;;;;;;;22.85;66.25;99681.91;4996593;28;6776;-71
2023/07/29 01:30:19;;;;;;;;;;;;;;;22.83;66.68;99674.09;4999163;28;7232;-71
2023/07/29 01:32:55;;;;;;;;;;;;;;;22.81;66.52;99678.47;4982092;28;7284;-71
2023/07/29 01:36:01;;;;;;;;;;;;;;;22.79;66.30;99690.69;4996960;28;6800;-72
2023/07/29 01:38:34;;;;;;;;;;;;;;;22.78;66.57;99695.94;4969847;28;6991;-71
2023/07/29 01:41:04;;;;;;;;;;;;;;;22.79;67.16;99695.06;4976782;28;7078;-71
2023/07/29 01:43:31;;;;;;;;;;;;;;;22.79;66.62;99698.53;5009985;28;6812;-71
2023/07/29 01:45:57;;;;;;;;;;;;;;;22.79;66.98;99695.94;4978389;28;6978;-72
2023/07/29 01:48:23;;;;;;;;;;;;;;;22.79;67.13;99698.53;4994663;28;6977;-72
2023/07/29 01:50:48;;;;;;;;;;;;;;;22.82;66.97;99702.84;5000126;28;6990;-71
2023/07/29 01:53:14;;;;;;;;;;;;;;;22.83;67.08;99697.59;4985677;28;7423;-71
2023/07/29 01:55:40;;;;;;;;;;;;;;;22.86;66.76;99702.78;5011693;28;6879;-71
2023/07/29 01:58:05;;;;;;;;;;;;;;;22.88;66.95;99701.00;5011543;28;6807;-71
2023/07/29 02:00:31;;;;;;;;;;;;;;;22.92;67.33;99698.34;4995870;28;7112;-72
2023/07/29 02:02:56;;;;;;;;;;;;;;;22.94;67.07;99707.91;4997586;28;6784;-71
2023/07/29 02:05:22;;;;;;;;;;;;;;;22.97;66.90;99699.13;4995793;28;6965;-72
2023/07/29 02:07:47;;;;;;;;;;;;;;;23.00;67.22;99699.97;5010615;28;6963;-71
2023/07/29 02:10:13;;;;;;;;;;;;;;;23.03;66.91;99699.94;4991635;28;6800;-71
2023/07/29 02:12:38;;;;;;;;;;;;;;;23.06;66.87;99693.78;4982673;28;7024;-72
2023/07/29 02:15:05;;;;;;;;;;;;;;;23.08;67.16;99688.53;4992895;28;6844;-72
2023/07/29 02:17:30;;;;;;;;;;;;;;;23.09;66.98;99688.53;4994150;28;6800;-71
2023/07/29 02:19:56;;;;;;;;;;;;;;;23.09;66.78;99698.97;4979425;28;7180;-72
2023/07/29 02:22:21;;;;;;;;;;;;;;;23.10;66.77;99689.38;5011331;28;7042;-71
2023/07/29 02:24:47;;;;;;;;;;;;;;;23.11;67.20;99681.53;5008494;28;6855;-71
2023/07/29 02:27:12;;;;;;;;;;;;;;;23.12;67.11;99677.13;4981536;28;7287;-71
2023/07/29 02:29:38;;;;;;;;;;;;;;;23.13;66.77;99669.28;5011542;28;7195;-72
2023/07/29 02:32:04;;;;;;;;;;;;;;;23.15;66.53;99671.88;4983882;28;7221;-73
2023/07/29 02:34:30;;;;;;;;;;;;;;;23.12;66.88;99664.06;4994837;28;9289;-73
2023/07/29 02:36:55;;;;;;;;;;;;;;;23.13;66.85;99657.97;5008811;28;6803;-73
2023/07/29 02:39:21;;;;;;;;;;;;;;;23.10;66.42;99669.34;5012558;28;6815;-73
2023/07/29 02:41:47;;;;;;;;;;;;;;;23.08;66.35;99676.34;4993362;28;6831;-74
2023/07/29 02:44:12;;;;;;;;;;;;;;;23.06;66.51;99691.16;4992814;28;6792;-73
2023/07/29 02:46:38;;;;;;;;;;;;;;;23.02;66.37;99682.50;5008051;28;7219;-73
2023/07/29 02:49:03;;;;;;;;;;;;;;;22.99;66.38;99679.09;5006413;28;6867;-73
2023/07/29 02:51:32;;;;;;;;;;;;;;;22.95;66.54;99680.91;4993519;28;7478;-73
2023/07/29 02:53:57;;;;;;;;;;;;;;;22.91;66.71;99678.34;5014174;28;7015;-74
2023/07/29 02:56:23;;;;;;;;;;;;;;;22.89;66.84;99657.47;5010326;28;7272;-73
2023/07/29 02:58:51;;;;;;;;;;;;;;;22.87;66.76;99661.84;4993495;28;6808;-73
2023/07/29 03:01:17;;;;;;;;;;;;;;;22.84;66.43;99662.75;4981265;28;6982;-74
2023/07/29 03:03:42;;;;;;;;;;;;;;;22.82;66.29;99669.75;4980425;28;6937;-73
2023/07/29 03:06:09;;;;;;;;;;;;;;;22.78;66.46;99673.28;4997418;28;8463;-73
2023/07/29 03:08:35;;;;;;;;;;;;;;;22.71;66.15;99682.94;4984671;28;7002;-73
2023/07/29 03:11:10;;;;;;;;;;;;;;;22.66;66.07;99669.09;4982362;28;6994;-73
2023/07/29 03:13:35;;;;;;;;;;;;;;;22.61;66.66;99668.28;4979780;28;7280;-73
2023/07/29 03:16:09;;;;;;;;;;;;;;;22.56;66.50;99676.19;4995530;28;6965;-73
2023/07/29 03:18:35;;;;;;;;;;;;;;;22.50;66.46;99684.09;5010842;28;6936;-73
2023/07/29 03:21:01;;;;;;;;;;;;;;;22.46;66.69;99687.59;4981427;28;7257;-74
2023/07/29 03:23:28;;;;;;;;;;;;;;;22.42;66.53;99683.31;4993828;28;6941;-74
2023/07/29 03:25:58;;;;;;;;;;;;;;;22.38;66.65;99679.88;4995741;28;6820;-74
2023/07/29 03:28:25;;;;;;;;;;;;;;;22.36;66.74;99686.88;4996062;28;7456;-73
2023/07/29 03:30:51;;;;;;;;;;;;;;;22.34;66.99;99683.38;4990512;28;7463;-74
2023/07/29 03:33:16;;;;;;;;;;;;;;;22.31;66.50;99673.88;5011510;28;6949;-74
2023/07/29 03:35:44;;;;;;;;;;;;;;;22.28;66.38;99679.09;4994417;28;6930;-74
2023/07/29 03:38:10;;;;;;;;;;;;;;;22.26;66.76;99683.50;5009121;28;6820;-74
2023/07/29 03:40:36;;;;;;;;;;;;;;;22.26;66.83;99690.44;5006454;28;7247;-73
2023/07/29 03:43:01;;;;;;;;;;;;;;;22.24;66.75;99687.88;4996957;28;6795;-73
2023/07/29 03:45:27;;;;;;;;;;;;;;;22.21;67.24;99687.88;5014551;28;7156;-74
2023/07/29 03:47:52;;;;;;;;;;;;;;;22.19;66.54;99681.81;5012452;28;6888;-74
2023/07/29 03:50:18;;;;;;;;;;;;;;;22.17;66.95;99692.31;4981863;28;6829;-73
2023/07/29 03:52:43;;;;;;;;;;;;;;;22.14;67.19;99691.47;5000176;28;6884;-74
2023/07/29 03:55:09;;;;;;;;;;;;;;;22.12;66.70;99708.88;4996947;28;9771;-74
2023/07/29 03:57:34;;;;;;;;;;;;;;;22.09;66.47;99708.91;5013292;28;6859;-74
2023/07/29 03:59:59;;;;;;;;;;;;;;;22.08;66.88;99715.00;5007803;28;7177;-74
2023/07/29 04:02:25;;;;;;;;;;;;;;;22.04;66.80;99714.16;4996717;28;7137;-75
2023/07/29 04:04:50;;;;;;;;;;;;;;;22.03;66.65;99713.31;5000043;28;6881;-74
2023/07/29 04:07:16;;;;;;;;;;;;;;;22.00;66.94;99709.88;5016387;28;6784;-75
2023/07/29 04:09:43;;;;;;;;;;;;;;;21.97;66.89;99705.53;4993793;28;7163;-73
2023/07/29 04:12:09;;;;;;;;;;;;;;;21.96;66.74;99705.56;4995036;28;7396;-74
2023/07/29 04:14:34;;;;;;;;;;;;;;;21.94;66.71;99704.72;4999373;28;6947;-74
2023/07/29 04:16:59;;;;;;;;;;;;;;;21.91;66.63;99705.59;5015238;28;6852;-74
2023/07/29 04:19:25;;;;;;;;;;;;;;;21.89;66.54;99699.53;4999351;28;6780;-74
2023/07/29 04:21:50;;;;;;;;;;;;;;;21.89;66.54;99704.75;5015277;28;7043;-74
2023/07/29 04:24:16;;;;;;;;;;;;;;;21.84;66.94;99699.56;5000739;28;7114;-73
2023/07/29 04:26:41;;;;;;;;;;;;;;;21.81;66.88;99685.69;5000232;28;6900;-74
2023/07/29 04:29:07;;;;;;;;;;;;;;;21.80;66.55;99678.75;5013452;28;6918;-73
2023/07/29 04:31:32;;;;;;;;;;;;;;;21.78;66.68;99673.59;4994796;28;7047;-73
2023/07/29 04:33:58;;;;;;;;;;;;;;;21.77;66.64;99677.03;4999007;28;7112;-73
2023/07/29 04:36:24;;;;;;;;;;;;;;;21.76;66.65;99684.03;5002346;28;7043;-73
2023/07/29 04:38:49;;;;;;;;;;;;;;;21.74;66.77;99685.78;4985009;28;6824;-73
2023/07/29 04:41:14;;;;;;;;;;;;;;;21.72;66.60;99690.13;5007791;28;7301;-73
2023/07/29 04:43:40;;;;;;;;;;;;;;;21.71;67.07;99690.16;4998302;28;7180;-74
2023/07/29 04:46:09;;;;;;;;;;;;;;;21.70;66.72;99691.88;5007775;28;6791;-73
2023/07/29 04:48:34;;;;;;;;;;;;;;;21.71;67.08;99703.19;5002734;28;6940;-74
2023/07/29 04:51:00;;;;;;;;;;;;;;;21.71;66.52;99716.22;4997331;28;6795;-74
2023/07/29 04:53:25;;;;;;;;;;;;;;;21.70;66.72;99711.91;4994189;28;6854;-73
2023/07/29 04:59:26;;;;;;;;;;;;;;;21.64;66.90;99723.22;4983143;28;8362;-74
2023/07/29 05:01:52;;;;;;;;;;;;;;;21.62;66.65;99724.94;4980528;28;7258;-73
2023/07/29 05:04:17;;;;;;;;;;;;;;;21.62;66.61;99715.41;4975301;28;6975;-74
2023/07/29 05:06:43;;;;;;;;;;;;;;;21.62;66.72;99704.09;4991652;28;7167;-73
2023/07/29 05:09:19;;;;;;;;;;;;;;;21.61;66.29;99731.94;4991080;28;7024;-73
2023/07/29 05:11:45;;;;;;;;;;;;;;;21.61;66.42;99736.25;4986356;28;7037;-73
2023/07/29 05:14:15;;;;;;;;;;;;;;;21.58;66.62;99749.31;5002120;28;6791;-74
2023/07/29 05:16:40;;;;;;;;;;;;;;;21.58;66.50;99751.94;5003354;28;7428;-74
2023/07/29 05:19:06;;;;;;;;;;;;;;;21.57;66.66;99753.66;4998835;28;7197;-72
2023/07/29 05:21:31;;;;;;;;;;;;;;;21.57;66.65;99745.00;4972916;28;7044;-72
2023/07/29 05:23:57;;;;;;;;;;;;;;;21.57;66.33;99758.03;4987400;28;8233;-72
2023/07/29 05:26:23;;;;;;;;;;;;;;;21.58;66.71;99755.38;4989653;28;6819;-71
2023/07/29 05:28:48;;;;;;;;;;;;;;;21.61;66.77;99758.00;5002721;28;6783;-71
2023/07/29 05:31:14;;;;;;;;;;;;;;;21.62;66.66;99761.44;4974324;28;7410;-71
2023/07/29 05:33:39;;;;;;;;;;;;;;;21.65;66.54;99761.44;4989611;28;6989;-71
2023/07/29 05:36:05;;;;;;;;;;;;;;;21.68;66.39;99764.06;5010683;28;6942;-71
2023/07/29 05:38:31;;;;;;;;;;;;;;;21.70;66.64;99764.06;5005829;28;7395;-71
2023/07/29 05:40:56;;;;;;;;;;;;;;;21.72;66.62;99767.50;5001401;28;8162;-71
2023/07/29 05:43:23;;;;;;;;;;;;;;;21.73;66.52;99764.91;4994027;28;6783;-71
2023/07/29 05:45:49;;;;;;;;;;;;;;;21.75;66.59;99768.34;4989427;28;6832;-72
2023/07/29 05:48:14;;;;;;;;;;;;;;;21.77;66.34;99773.53;4989931;28;8214;-71
2023/07/29 05:50:40;;;;;;;;;;;;;;;21.78;66.52;99770.91;4984058;28;6791;-72
2023/07/29 05:53:05;;;;;;;;;;;;;;;21.83;66.81;99781.31;4994134;28;6958;-71
2023/07/29 05:55:30;;;;;;;;;;;;;;;21.90;66.86;99780.41;4970845;28;7130;-71
2023/07/29 05:57:57;;;;;;;;;;;;;;;21.94;66.81;99770.81;4997980;28;6792;-72
2023/07/29 06:00:23;;;;;;;;;;;;;;;22.04;66.91;99774.19;4974553;28;7135;-71
2023/07/29 06:02:48;;;;;;;;;;;;;;;22.12;66.80;99756.72;4992814;28;7224;-71
2023/07/29 06:05:14;;;;;;;;;;;;;;;22.22;66.92;99767.06;5002248;28;6788;-71
2023/07/29 06:07:43;;;;;;;;;;;;;;;22.32;66.88;99763.47;5002002;28;6800;-72
2023/07/29 06:10:11;;;;;;;;;;;;;;;22.42;66.99;99764.25;5004363;28;6954;-71
2023/07/29 06:12:37;;;;;;;;;;;;;;;22.52;66.27;99771.13;4993037;28;7196;-71
2023/07/29 06:15:04;;;;;;;;;;;;;;;22.60;66.73;99771.91;4988961;28;6789;-71
2023/07/29 06:17:29;;;;;;;;;;;;;;;22.69;66.51;99772.66;5009611;28;6796;-72
2023/07/29 06:19:55;;;;;;;;;;;;;;;22.76;66.09;99779.53;4992586;28;6867;-71
2023/07/29 06:22:20;;;;;;;;;;;;;;;22.82;65.80;99781.19;5003436;28;6783;-71
2023/07/29 06:24:46;;;;;;;;;;;;;;;22.85;65.33;99789.88;4998602;28;6776;-71
2023/07/29 06:27:11;;;;;;;;;;;;;;;22.87;65.19;99788.09;5001753;28;6837;-72
2023/07/29 06:29:36;;;;;;;;;;;;;;;22.91;65.23;99793.31;4999264;28;7192;-71
2023/07/29 06:32:02;;;;;;;;;;;;;;;22.94;64.76;99803.69;4965007;28;6947;-71
2023/07/29 06:34:28;;;;;;;;;;;;;;;22.99;64.87;99794.06;5001761;28;7200;-71
2023/07/29 06:36:53;;;;;;;;;;;;;;;23.03;65.03;99782.69;4989632;28;6845;-71
2023/07/29 06:39:19;;;;;;;;;;;;;;;23.11;65.20;99779.94;4984052;28;7564;-70
2023/07/29 06:41:44;;;;;;;;;;;;;;;23.20;65.04;99781.59;4984491;28;8469;-71
2023/07/29 06:44:09;;;;;;;;;;;;;;;23.28;65.13;99774.53;4993657;28;6961;-70
2023/07/29 06:46:35;;;;;;;;;;;;;;;23.36;64.29;99766.56;4992570;28;7178;-70
2023/07/29 06:49:00;;;;;;;;;;;;;;;23.41;63.92;99773.47;5003706;28;6783;-72
2023/07/29 06:51:26;;;;;;;;;;;;;;;23.43;63.92;99781.28;4987262;28;6906;-71
2023/07/29 06:53:52;;;;;;;;;;;;;;;23.44;63.49;99775.16;4992561;28;6949;-71
2023/07/29 06:56:17;;;;;;;;;;;;;;;23.43;63.29;99776.91;4979922;28;7983;-71
2023/07/29 06:58:43;;;;;;;;;;;;;;;23.44;63.48;99788.25;4962624;28;7028;-70
2023/07/29 07:01:08;;;;;;;;;;;;;;;23.47;63.07;99792.53;4988960;28;7049;-72
2023/07/29 07:03:34;;;;;;;;;;;;;;;23.52;63.59;99785.50;4983823;28;6820;-70
2023/07/29 07:05:59;;;;;;;;;;;;;;;23.58;63.15;99788.03;4987481;28;8618;-71
2023/07/29 07:08:25;;;;;;;;;;;;;;;23.64;63.10;99790.53;4989285;28;6784;-72
2023/07/29 07:10:50;;;;;;;;;;;;;;;23.65;62.92;99784.41;4990175;28;6868;-71
2023/07/29 07:13:16;;;;;;;;;;;;;;;23.63;61.70;99778.34;5008892;28;6780;-71
2023/07/29 07:15:41;;;;;;;;;;;;;;;23.62;61.78;99791.47;4984581;28;6963;-71
2023/07/29 07:18:07;;;;;;;;;;;;;;;23.61;62.24;99797.56;4977140;28;8504;-71
2023/07/29 07:20:32;;;;;;;;;;;;;;;23.66;61.92;99791.41;4981119;28;6839;-70
2023/07/29 07:22:58;;;;;;;;;;;;;;;23.76;62.53;99788.59;4993287;28;6792;-71
2023/07/29 07:25:23;;;;;;;;;;;;;;;23.90;62.53;99785.75;4991917;28;6776;-71
2023/07/29 07:27:49;;;;;;;;;;;;;;;24.05;62.36;99788.16;4988408;28;6963;-71
2023/07/29 07:30:14;;;;;;;;;;;;;;;24.21;61.16;99793.13;4989189;28;6812;-71
2023/07/29 07:32:40;;;;;;;;;;;;;;;24.33;60.57;99784.16;5007336;28;6847;-71
2023/07/29 07:35:05;;;;;;;;;;;;;;;24.43;60.92;99784.88;5008009;28;7037;-70
2023/07/29 07:37:31;;;;;;;;;;;;;;;24.57;60.87;99793.31;4990358;28;7122;-70
2023/07/29 07:39:56;;;;;;;;;;;;;;;24.72;60.55;99794.75;5004636;28;8200;-70
2023/07/29 07:42:22;;;;;;;;;;;;;;;24.87;60.30;99787.50;4984436;28;6994;-71
2023/07/29 07:44:47;;;;;;;;;;;;;;;25.02;59.78;99786.31;4988542;28;7820;-71
2023/07/29 07:47:13;;;;;;;;;;;;;;;25.26;59.97;99786.69;4992212;28;6942;-71
2023/07/29 07:49:38;;;;;;;;;;;;;;;25.50;58.71;99785.28;4976990;28;7649;-71
2023/07/29 07:52:04;;;;;;;;;;;;;;;25.68;57.88;99788.34;4992276;28;7054;-71
2023/07/29 07:54:29;;;;;;;;;;;;;;;25.83;57.11;99787.97;4978423;28;7137;-71
2023/07/29 07:56:55;;;;;;;;;;;;;;;25.95;56.61;99778.06;4996288;28;6792;-70
2023/07/29 07:59:20;;;;;;;;;;;;;;;26.07;56.40;99777.72;4991980;28;8353;-72
2023/07/29 08:01:46;;;;;;;;;;;;;;;26.20;55.80;99784.44;5005235;28;7306;-71
2023/07/29 08:04:12;;;;;;;;;;;;;;;26.33;55.51;99776.22;4978370;28;6855;-70
2023/07/29 08:06:37;;;;;;;;;;;;;;;26.51;55.40;99773.97;4983255;28;7341;-72
2023/07/29 08:09:03;;;;;;;;;;;;;;;26.69;54.53;99788.34;4987396;28;6811;-70
2023/07/29 08:11:28;;;;;;;;;;;;;;;26.88;54.14;99780.84;4988325;28;6792;-72
2023/07/29 08:13:54;;;;;;;;;;;;;;;26.99;53.24;99775.22;4983963;28;6923;-70
2023/07/29 08:16:19;;;;;;;;;;;;;;;27.08;53.24;99785.47;4988914;28;6787;-71
2023/07/29 08:18:45;;;;;;;;;;;;;;;27.18;52.89;99786.91;4998605;28;8473;-71
2023/07/29 08:21:10;;;;;;;;;;;;;;;27.33;52.94;99787.34;4998056;28;6795;-70
2023/07/29 08:23:36;;;;;;;;;;;;;;;27.50;52.50;99791.22;4984733;28;7202;-71
2023/07/29 08:26:05;;;;;;;;;;;;;;;27.70;52.45;99783.56;4990064;28;6992;-70
2023/07/29 08:28:35;;;;;;;;;;;;;;;27.88;51.36;99777.72;4987302;28;6803;-70
2023/07/29 08:31:00;;;;;;;;;;;;;;;28.09;51.39;99784.03;4990013;28;7122;-70
2023/07/29 08:33:26;;;;;;;;;;;;;;;28.34;51.13;99778.78;4987519;28;7003;-72
2023/07/29 08:35:53;;;;;;;;;;;;;;;28.54;50.16;99782.47;4989566;28;6791;-72
2023/07/29 08:38:19;;;;;;;;;;;;;;;28.74;50.13;99787.03;4983529;28;7202;-71
2023/07/29 08:40:57;;;;;;;;;;;;;;;29.02;49.26;99785.13;4973364;28;6968;-71
2023/07/29 08:43:30;;;;;;;;;;;;;;;29.26;48.25;99791.22;4979028;28;7286;-70
2023/07/29 08:45:55;;;;;;;;;;;;;;;29.39;47.37;99794.25;4986402;28;6868;-71
2023/07/29 08:48:32;;;;;;;;;;;;;;;29.39;46.74;99796.88;4986004;28;6961;-70
2023/07/29 08:51:00;;;;;;;;;;;;;;;29.23;46.10;99796.63;4991604;28;6831;-72
2023/07/29 08:53:26;;;;;;;;;;;;;;;28.90;46.71;99797.00;4972267;28;8540;-72
2023/07/29 08:55:53;;;;;;;;;;;;;;;28.58;46.21;99801.69;5001853;28;6807;-71
2023/07/29 08:58:21;;;;;;;;;;;;;;;28.29;47.35;99807.06;4991075;28;6811;-71
2023/07/29 09:00:47;;;;;;;;;;;;;;;28.07;47.39;99799.03;4993969;28;6816;-71
2023/07/29 09:03:13;;;;;;;;;;;;;;;27.91;47.21;99801.31;4976012;28;7253;-71
2023/07/29 09:05:38;;;;;;;;;;;;;;;27.78;47.33;99804.38;4972720;28;6977;-71
2023/07/29 09:08:04;;;;;;;;;;;;;;;27.67;47.50;99809.13;4972461;28;7257;-71
2023/07/29 09:10:30;;;;;;;;;;;;;;;27.61;48.31;99814.59;4982766;28;6863;-70
2023/07/29 09:12:55;;;;;;;;;;;;;;;27.61;48.11;99809.31;5012283;28;6970;-71
2023/07/29 09:15:31;;;;;;;;;;;;;;;27.59;48.22;99809.38;4985271;28;6875;-70
2023/07/29 09:17:57;;;;;;;;;;;;;;;27.86;49.50;99793.56;4988829;28;7336;-70
2023/07/29 09:20:27;;;;;;;;;;;;;;;28.53;48.52;99789.50;4986577;28;6863;-70
2023/07/29 09:22:59;;;;;;;;;;;;;;;29.25;47.76;99792.16;4993944;28;8569;-69
2023/07/29 09:25:26;;;;;;;;;;;;;;;29.78;44.72;99798.84;5006868;28;7290;-70
2023/07/29 09:27:51;;;;;;;;;;;;;;;29.72;43.24;99804.34;5003872;28;6804;-70
2023/07/29 09:30:18;;;;;;;;;;;;;;;29.36;43.26;99800.50;4993178;28;6854;-70
2023/07/29 09:32:43;;;;;;;;;;;;;;;29.03;43.64;99797.41;4989260;28;7936;-70
2023/07/29 09:35:12;;;;;;;;;;;;;;;28.96;44.15;99807.31;4997700;28;6855;-71
2023/07/29 09:37:39;;;;;;;;;;;;;;;29.13;43.85;99809.31;5002949;28;7001;-71
2023/07/29 09:40:06;;;;;;;;;;;;;;;29.28;44.81;99805.22;4997477;28;6816;-71
2023/07/29 09:42:32;;;;;;;;;;;;;;;29.33;43.86;99797.97;4979995;28;7191;-70
2023/07/29 09:44:57;;;;;;;;;;;;;;;29.23;44.17;99800.09;4999438;28;6997;-71
2023/07/29 09:47:25;;;;;;;;;;;;;;;28.96;42.96;99794.97;4998807;28;6811;-70
2023/07/29 09:49:51;;;;;;;;;;;;;;;28.65;43.20;99798.75;4966016;28;7220;-71
2023/07/29 09:52:18;;;;;;;;;;;;;;;28.47;44.00;99805.56;4996448;28;6979;-70
2023/07/29 09:54:44;;;;;;;;;;;;;;;28.40;44.05;99810.22;4998752;28;6984;-70
2023/07/29 09:57:19;;;;;;;;;;;;;;;28.69;45.48;99807.41;5018648;28;6811;-72
2023/07/29 09:59:55;;;;;;;;;;;;;;;29.42;44.86;99809.94;5014891;28;6958;-71
2023/07/29 10:02:22;;;;;;;;;;;;;;;30.21;42.96;99808.50;4983469;28;7027;-71
2023/07/29 10:04:49;;;;;;;;;;;;;;;30.93;42.68;99811.50;4997262;28;7060;-71
2023/07/29 10:07:15;;;;;;;;;;;;;;;31.61;40.27;99798.63;5007296;28;6799;-73
2023/07/29 10:09:43;;;;;;;;;;;;;;;32.15;38.78;99793.28;5002325;28;7315;-72
2023/07/29 10:12:09;;;;;;;;;;;;;;;32.58;38.76;99798.13;5016048;28;6787;-72
2023/07/29 10:14:37;;;;;;;;;;;;;;;33.07;37.86;99799.06;5011874;28;7153;-73
2023/07/29 10:17:04;;;;;;;;;;;;;;;33.56;36.94;99791.94;4991951;28;6815;-73
2023/07/29 10:19:30;;;;;;;;;;;;;;;33.87;35.48;99795.47;4995158;28;6946;-72
2023/07/29 10:22:01;;;;;;;;;;;;;;;33.75;35.36;99784.59;4982363;28;7249;-73
2023/07/29 10:24:30;;;;;;;;;;;;;;;33.52;35.01;99794.78;5018471;28;6815;-73
2023/07/29 10:27:01;;;;;;;;;;;;;;;33.27;35.04;99794.44;4998168;28;6880;-72
2023/07/29 10:29:38;;;;;;;;;;;;;;;33.04;35.61;99800.13;5002614;28;7000;-71
2023/07/29 10:32:05;;;;;;;;;;;;;;;32.82;35.39;99801.25;5000916;28;6819;-72
2023/07/29 10:34:31;;;;;;;;;;;;;;;32.41;35.86;99805.22;5013136;28;6799;-73
2023/07/29 10:36:58;;;;;;;;;;;;;;;32.03;36.30;99791.28;4996558;28;6955;-71
2023/07/29 10:39:26;;;;;;;;;;;;;;;31.55;36.61;99803.31;4997020;28;6796;-71
2023/07/29 10:42:00;;;;;;;;;;;;;;;30.99;36.86;99805.94;4982592;28;7015;-71
2023/07/29 10:44:51;;;;;;;;;;;;;;;30.55;37.55;99795.59;5000690;28;6819;-70
2023/07/29 10:47:19;;;;;;;;;;;;;;;30.35;38.09;99795.56;5001115;28;6823;-72
2023/07/29 10:49:47;;;;;;;;;;;;;;;30.21;37.37;99795.28;5012336;28;7015;-73
2023/07/29 10:52:14;;;;;;;;;;;;;;;30.10;38.07;99794.91;4982792;28;6867;-71
2023/07/29 10:54:47;;;;;;;;;;;;;;;30.30;38.31;99802.81;5000043;28;7996;-72
2023/07/29 10:57:15;;;;;;;;;;;;;;;30.51;38.60;99789.56;5014197;28;6999;-72
2023/07/29 10:59:43;;;;;;;;;;;;;;;30.52;37.96;99786.03;5007378;28;7286;-72
2023/07/29 11:02:18;;;;;;;;;;;;;;;30.31;38.25;99780.75;4979123;28;6986;-71
2023/07/29 11:04:48;;;;;;;;;;;;;;;30.00;38.55;99784.72;4995895;28;6804;-71
2023/07/29 11:07:13;;;;;;;;;;;;;;;29.91;39.05;99779.81;5014019;28;6887;-71
2023/07/29 11:09:51;;;;;;;;;;;;;;;29.88;39.67;99788.72;5001153;28;7062;-71
2023/07/29 11:12:47;;;;;;;;;;;;;;;29.96;40.34;99791.06;4994544;28;6799;-70
2023/07/29 11:15:23;;;;;;;;;;;;;;;30.25;40.14;99786.31;4986570;28;6911;-71
2023/07/29 11:17:55;;;;;;;;;;;;;;;30.50;39.46;99777.28;4985898;28;7004;-71
2023/07/29 11:20:28;;;;;;;;;;;;;;;30.85;39.02;99779.25;5009542;28;6888;-70
2023/07/29 11:22:54;;;;;;;;;;;;;;;31.42;39.02;99773.94;5017426;28;7015;-71
2023/07/29 11:25:22;;;;;;;;;;;;;;;32.01;38.12;99767.50;5003057;28;6850;-71
2023/07/29 11:27:47;;;;;;;;;;;;;;;32.27;36.97;99771.47;4998396;28;6796;-71
2023/07/29 11:30:15;;;;;;;;;;;;;;;32.23;36.90;99761.94;4995949;28;6959;-70
2023/07/29 11:32:42;;;;;;;;;;;;;;;32.39;36.71;99763.81;4959267;28;7006;-72
2023/07/29 11:35:16;;;;;;;;;;;;;;;32.58;36.87;99761.00;4978317;28;6860;-73
2023/07/29 11:37:44;;;;;;;;;;;;;;;32.99;35.84;99759.69;4972829;28;6876;-72
2023/07/29 11:40:14;;;;;;;;;;;;;;;33.32;35.64;99756.09;4969716;28;7053;-70
2023/07/29 11:42:40;;;;;;;;;;;;;;;33.76;35.21;99753.56;4995584;28;7017;-69
2023/07/29 11:45:07;;;;;;;;;;;;;;;34.19;34.92;99752.81;4968341;28;6981;-71
2023/07/29 11:47:36;;;;;;;;;;;;;;;34.59;34.77;99757.50;4979858;28;7263;-70
2023/07/29 11:50:11;;;;;;;;;;;;;;;35.03;34.15;99750.25;4937824;28;6904;-72
2023/07/29 11:52:37;;;;;;;;;;;;;;;35.19;33.63;99744.81;4978876;28;7742;-70
2023/07/29 11:55:04;;;;;;;;;;;;;;;35.45;33.11;99739.56;4989499;28;6883;-73
2023/07/29 11:57:31;;;;;;;;;;;;;;;35.70;32.07;99735.25;4983119;28;6812;-69
2023/07/29 11:59:57;;;;;;;;;;;;;;;35.88;31.79;99729.59;4984362;28;6799;-71
2023/07/29 12:02:25;;;;;;;;;;;;;;;36.26;31.69;99739.44;4989729;28;7141;-71
2023/07/29 12:04:51;;;;;;;;;;;;;;;36.43;30.14;99738.22;4969386;28;8502;-69
2023/07/29 12:07:18;;;;;;;;;;;;;;;35.97;31.00;99728.97;4990254;28;6981;-70
2023/07/29 12:09:45;;;;;;;;;;;;;;;35.15;30.92;99733.50;4980140;28;6812;-70
2023/07/29 12:12:11;;;;;;;;;;;;;;;34.34;32.25;99738.56;4986607;28;6795;-71
2023/07/29 12:14:37;;;;;;;;;;;;;;;33.48;31.82;99742.78;4968412;28;8242;-72
2023/07/29 12:17:04;;;;;;;;;;;;;;;32.65;32.89;99732.38;4991446;28;7013;-70
2023/07/29 12:19:35;;;;;;;;;;;;;;;31.86;33.91;99732.94;4966160;28;7991;-72
2023/07/29 12:22:05;;;;;;;;;;;;;;;31.18;34.84;99738.91;4997132;28;7078;-70
2023/07/29 12:24:32;;;;;;;;;;;;;;;30.63;35.16;99745.88;4993956;28;6978;-69
2023/07/29 12:26:58;;;;;;;;;;;;;;;30.15;36.07;99734.81;5009304;28;6812;-72
2023/07/29 12:29:24;;;;;;;;;;;;;;;29.71;37.20;99747.19;4984244;28;6808;-70
2023/07/29 12:31:58;;;;;;;;;;;;;;;29.25;38.19;99745.50;4981802;28;7650;-71
2023/07/29 12:34:26;;;;;;;;;;;;;;;28.68;39.38;99748.56;5004564;28;7423;-71
2023/07/29 12:36:52;;;;;;;;;;;;;;;28.10;40.75;99747.13;4991403;28;6978;-69
2023/07/29 12:39:19;;;;;;;;;;;;;;;27.60;41.85;99750.56;5000898;28;8192;-72
2023/07/29 12:41:45;;;;;;;;;;;;;;;27.11;43.17;99763.50;5009679;28;6811;-72
2023/07/29 12:44:11;;;;;;;;;;;;;;;26.67;44.55;99770.03;4999669;28;7043;-69
2023/07/29 12:46:36;;;;;;;;;;;;;;;26.29;45.58;99767.53;4990728;28;7383;-70
2023/07/29 12:49:02;;;;;;;;;;;;;;;25.98;46.39;99780.59;4990785;28;6827;-71
2023/07/29 12:51:27;;;;;;;;;;;;;;;25.72;47.63;99777.72;4988283;28;6985;-70
2023/07/29 12:53:53;;;;;;;;;;;;;;;25.51;48.36;99774.75;5008488;28;8099;-69
2023/07/29 12:56:19;;;;;;;;;;;;;;;25.32;48.55;99779.53;4969905;28;6990;-70
2023/07/29 12:58:44;;;;;;;;;;;;;;;25.08;49.34;99779.19;4994790;28;7162;-71
2023/07/29 13:01:13;;;;;;;;;;;;;;;24.89;49.56;99798.81;4982524;28;7276;-70